sensor_id;sensor_type;location;lat;lon;timestamp;P1;durP1;ratioP1;P2;durP2;ratioP2
15331;SDS011;7766;51.534;6.722;2022-07-29T00:00:47;2.57;;;1.30;;
15331;SDS011;7766;51.534;6.722;2022-07-29T00:01:48;4.23;;;1.10;;
15331;SDS011;7766;51.534;6.722;2022-07-29T00:02:49;2.83;;;1.40;;
15331;SDS011;7766;51.534;6.722;2022-07-29T00:03:49;5.67;;;1.63;;
15331;SDS011;7766;51.534;6.722;2022-07-29T00:04:50;3.93;;;1.20;;
15331;SDS011;7766;51.534;6.722;2022-07-29T00:05:50;1.70;;;1.20;;
15331;SDS011;7766;51.534;6.722;2022-07-29T00:06:52;4.47;;;1.27;;
15331;SDS011;7766;51.534;6.722;2022-07-29T00:07:54;2.30;;;1.13;;
15331;SDS011;7766;51.534;6.722;2022-07-29T00:08:55;2.50;;;1.10;;
15331;SDS011;7766;51.534;6.722;2022-07-29T00:09:55;4.13;;;1.50;;
15331;SDS011;7766;51.534;6.722;2022-07-29T00:10:56;3.03;;;1.20;;
15331;SDS011;7766;51.534;6.722;2022-07-29T00:11:58;2.63;;;1.20;;
15331;SDS011;7766;51.534;6.722;2022-07-29T00:12:59;3.17;;;1.20;;
15331;SDS011;7766;51.534;6.722;2022-07-29T00:14:00;7.03;;;2.00;;
15331;SDS011;7766;51.534;6.722;2022-07-29T00:15:01;2.10;;;1.33;;
15331;SDS011;7766;51.534;6.722;2022-07-29T00:16:02;1.67;;;1.03;;
15331;SDS011;7766;51.534;6.722;2022-07-29T00:17:03;7.03;;;2.03;;
15331;SDS011;7766;51.534;6.722;2022-07-29T00:18:04;3.33;;;1.10;;
15331;SDS011;7766;51.534;6.722;2022-07-29T00:19:05;2.70;;;1.20;;
15331;SDS011;7766;51.534;6.722;2022-07-29T00:20:06;4.90;;;1.30;;
15331;SDS011;7766;51.534;6.722;2022-07-29T00:21:08;3.07;;;1.10;;
15331;SDS011;7766;51.534;6.722;2022-07-29T00:22:09;2.50;;;0.97;;
15331;SDS011;7766;51.534;6.722;2022-07-29T00:23:10;5.47;;;1.20;;
15331;SDS011;7766;51.534;6.722;2022-07-29T00:24:10;5.63;;;1.10;;
15331;SDS011;7766;51.534;6.722;2022-07-29T00:25:12;6.67;;;1.37;;
15331;SDS011;7766;51.534;6.722;2022-07-29T00:26:13;2.97;;;1.20;;
15331;SDS011;7766;51.534;6.722;2022-07-29T00:27:14;2.60;;;1.20;;
15331;SDS011;7766;51.534;6.722;2022-07-29T00:28:15;3.97;;;1.33;;
15331;SDS011;7766;51.534;6.722;2022-07-29T00:29:15;3.67;;;1.30;;
15331;SDS011;7766;51.534;6.722;2022-07-29T00:30:16;3.50;;;1.30;;
15331;SDS011;7766;51.534;6.722;2022-07-29T00:31:16;3.60;;;1.00;;
15331;SDS011;7766;51.534;6.722;2022-07-29T00:32:17;3.50;;;1.13;;
15331;SDS011;7766;51.534;6.722;2022-07-29T00:33:18;3.10;;;1.23;;
15331;SDS011;7766;51.534;6.722;2022-07-29T00:34:20;7.07;;;1.43;;
15331;SDS011;7766;51.534;6.722;2022-07-29T00:35:40;3.23;;;1.40;;
15331;SDS011;7766;51.534;6.722;2022-07-29T00:36:43;6.97;;;1.40;;
15331;SDS011;7766;51.534;6.722;2022-07-29T00:37:44;13.63;;;7.50;;
15331;SDS011;7766;51.534;6.722;2022-07-29T00:38:45;18.37;;;12.27;;
15331;SDS011;7766;51.534;6.722;2022-07-29T00:39:46;15.47;;;10.23;;
15331;SDS011;7766;51.534;6.722;2022-07-29T00:40:46;11.67;;;9.43;;
15331;SDS011;7766;51.534;6.722;2022-07-29T00:41:48;7.00;;;5.47;;
15331;SDS011;7766;51.534;6.722;2022-07-29T00:42:49;12.50;;;8.97;;
15331;SDS011;7766;51.534;6.722;2022-07-29T00:43:50;6.00;;;2.93;;
15331;SDS011;7766;51.534;6.722;2022-07-29T00:44:51;3.93;;;1.90;;
15331;SDS011;7766;51.534;6.722;2022-07-29T00:45:52;5.90;;;1.40;;
15331;SDS011;7766;51.534;6.722;2022-07-29T00:46:53;4.07;;;1.70;;
15331;SDS011;7766;51.534;6.722;2022-07-29T00:47:53;2.93;;;1.03;;
15331;SDS011;7766;51.534;6.722;2022-07-29T00:48:54;3.33;;;1.37;;
15331;SDS011;7766;51.534;6.722;2022-07-29T00:49:55;4.80;;;1.63;;
15331;SDS011;7766;51.534;6.722;2022-07-29T00:50:57;5.10;;;1.73;;
15331;SDS011;7766;51.534;6.722;2022-07-29T00:51:58;3.53;;;1.40;;
15331;SDS011;7766;51.534;6.722;2022-07-29T00:53:01;3.40;;;1.20;;
15331;SDS011;7766;51.534;6.722;2022-07-29T00:54:03;2.63;;;1.13;;
15331;SDS011;7766;51.534;6.722;2022-07-29T00:55:05;2.13;;;1.40;;
15331;SDS011;7766;51.534;6.722;2022-07-29T00:56:06;5.73;;;1.60;;
15331;SDS011;7766;51.534;6.722;2022-07-29T00:57:07;2.07;;;1.30;;
15331;SDS011;7766;51.534;6.722;2022-07-29T00:58:08;7.70;;;1.27;;
15331;SDS011;7766;51.534;6.722;2022-07-29T00:59:12;3.03;;;1.40;;
15331;SDS011;7766;51.534;6.722;2022-07-29T01:00:15;3.57;;;1.40;;
15331;SDS011;7766;51.534;6.722;2022-07-29T01:01:17;3.07;;;1.57;;
15331;SDS011;7766;51.534;6.722;2022-07-29T01:02:18;3.50;;;1.70;;
15331;SDS011;7766;51.534;6.722;2022-07-29T01:03:19;2.93;;;1.80;;
15331;SDS011;7766;51.534;6.722;2022-07-29T01:04:19;4.30;;;1.70;;
15331;SDS011;7766;51.534;6.722;2022-07-29T01:05:21;2.47;;;1.20;;
15331;SDS011;7766;51.534;6.722;2022-07-29T01:06:23;5.00;;;1.40;;
15331;SDS011;7766;51.534;6.722;2022-07-29T01:07:24;3.83;;;1.23;;
15331;SDS011;7766;51.534;6.722;2022-07-29T01:08:26;2.97;;;1.20;;
15331;SDS011;7766;51.534;6.722;2022-07-29T01:09:27;4.77;;;1.20;;
15331;SDS011;7766;51.534;6.722;2022-07-29T01:10:28;4.73;;;1.20;;
15331;SDS011;7766;51.534;6.722;2022-07-29T01:11:29;3.93;;;1.10;;
15331;SDS011;7766;51.534;6.722;2022-07-29T01:12:31;1.50;;;1.00;;
15331;SDS011;7766;51.534;6.722;2022-07-29T01:13:35;5.13;;;1.23;;
15331;SDS011;7766;51.534;6.722;2022-07-29T01:14:37;3.60;;;1.20;;
15331;SDS011;7766;51.534;6.722;2022-07-29T01:15:41;3.70;;;1.20;;
15331;SDS011;7766;51.534;6.722;2022-07-29T01:16:54;2.93;;;1.10;;
15331;SDS011;7766;51.534;6.722;2022-07-29T01:18:04;2.13;;;1.40;;
15331;SDS011;7766;51.534;6.722;2022-07-29T01:21:51;3.17;;;1.20;;
15331;SDS011;7766;51.534;6.722;2022-07-29T01:23:07;4.77;;;1.33;;
15331;SDS011;7766;51.534;6.722;2022-07-29T01:25:27;4.93;;;1.63;;
15331;SDS011;7766;51.534;6.722;2022-07-29T01:28:00;4.17;;;1.10;;
15331;SDS011;7766;51.534;6.722;2022-07-29T01:30:03;2.90;;;1.20;;
15331;SDS011;7766;51.534;6.722;2022-07-29T01:31:04;2.97;;;1.30;;
15331;SDS011;7766;51.534;6.722;2022-07-29T01:32:10;3.67;;;1.00;;
15331;SDS011;7766;51.534;6.722;2022-07-29T01:33:13;4.27;;;1.53;;
15331;SDS011;7766;51.534;6.722;2022-07-29T01:34:49;4.50;;;1.33;;
15331;SDS011;7766;51.534;6.722;2022-07-29T01:35:52;2.53;;;1.17;;
15331;SDS011;7766;51.534;6.722;2022-07-29T01:37:28;7.17;;;1.40;;
15331;SDS011;7766;51.534;6.722;2022-07-29T01:38:21;2.07;;;1.47;;
15331;SDS011;7766;51.534;6.722;2022-07-29T01:39:27;2.33;;;1.00;;
15331;SDS011;7766;51.534;6.722;2022-07-29T01:40:32;3.83;;;1.30;;
15331;SDS011;7766;51.534;6.722;2022-07-29T01:41:36;3.27;;;1.10;;
15331;SDS011;7766;51.534;6.722;2022-07-29T01:42:42;2.83;;;1.00;;
15331;SDS011;7766;51.534;6.722;2022-07-29T01:43:48;5.90;;;1.27;;
15331;SDS011;7766;51.534;6.722;2022-07-29T01:44:52;2.07;;;1.10;;
15331;SDS011;7766;51.534;6.722;2022-07-29T01:46:01;4.03;;;1.00;;
15331;SDS011;7766;51.534;6.722;2022-07-29T01:47:05;5.30;;;1.30;;
15331;SDS011;7766;51.534;6.722;2022-07-29T01:49:45;2.17;;;1.10;;
15331;SDS011;7766;51.534;6.722;2022-07-29T01:51:05;5.13;;;1.40;;
15331;SDS011;7766;51.534;6.722;2022-07-29T01:52:13;4.43;;;1.17;;
15331;SDS011;7766;51.534;6.722;2022-07-29T01:53:20;3.07;;;1.00;;
15331;SDS011;7766;51.534;6.722;2022-07-29T01:54:25;2.60;;;1.23;;
15331;SDS011;7766;51.534;6.722;2022-07-29T01:55:28;4.17;;;1.10;;
15331;SDS011;7766;51.534;6.722;2022-07-29T01:56:30;5.83;;;1.03;;
15331;SDS011;7766;51.534;6.722;2022-07-29T01:57:33;4.37;;;1.20;;
15331;SDS011;7766;51.534;6.722;2022-07-29T01:58:36;2.27;;;1.20;;
15331;SDS011;7766;51.534;6.722;2022-07-29T01:59:38;4.70;;;1.73;;
15331;SDS011;7766;51.534;6.722;2022-07-29T02:00:39;2.23;;;1.00;;
15331;SDS011;7766;51.534;6.722;2022-07-29T02:01:41;3.07;;;1.73;;
15331;SDS011;7766;51.534;6.722;2022-07-29T02:02:44;4.10;;;1.40;;
15331;SDS011;7766;51.534;6.722;2022-07-29T02:03:46;5.27;;;1.07;;
15331;SDS011;7766;51.534;6.722;2022-07-29T02:04:47;2.97;;;1.40;;
15331;SDS011;7766;51.534;6.722;2022-07-29T02:05:49;2.47;;;1.30;;
15331;SDS011;7766;51.534;6.722;2022-07-29T02:06:52;2.60;;;1.10;;
15331;SDS011;7766;51.534;6.722;2022-07-29T02:07:53;2.70;;;1.30;;
15331;SDS011;7766;51.534;6.722;2022-07-29T02:08:56;2.33;;;1.33;;
15331;SDS011;7766;51.534;6.722;2022-07-29T02:09:59;5.10;;;1.30;;
15331;SDS011;7766;51.534;6.722;2022-07-29T02:11:02;5.97;;;1.00;;
15331;SDS011;7766;51.534;6.722;2022-07-29T02:12:04;4.77;;;1.40;;
15331;SDS011;7766;51.534;6.722;2022-07-29T02:13:06;2.70;;;1.20;;
15331;SDS011;7766;51.534;6.722;2022-07-29T02:14:08;6.50;;;1.33;;
15331;SDS011;7766;51.534;6.722;2022-07-29T02:15:10;4.40;;;1.50;;
15331;SDS011;7766;51.534;6.722;2022-07-29T02:16:11;4.67;;;1.40;;
15331;SDS011;7766;51.534;6.722;2022-07-29T02:17:13;2.50;;;1.30;;
15331;SDS011;7766;51.534;6.722;2022-07-29T02:18:17;3.77;;;1.17;;
15331;SDS011;7766;51.534;6.722;2022-07-29T02:19:19;2.50;;;1.37;;
15331;SDS011;7766;51.534;6.722;2022-07-29T02:20:22;2.87;;;1.47;;
15331;SDS011;7766;51.534;6.722;2022-07-29T02:21:24;4.50;;;1.20;;
15331;SDS011;7766;51.534;6.722;2022-07-29T02:22:25;3.17;;;1.40;;
15331;SDS011;7766;51.534;6.722;2022-07-29T02:23:27;2.83;;;1.17;;
15331;SDS011;7766;51.534;6.722;2022-07-29T02:24:28;3.83;;;1.30;;
15331;SDS011;7766;51.534;6.722;2022-07-29T02:25:30;3.80;;;1.20;;
15331;SDS011;7766;51.534;6.722;2022-07-29T02:26:32;8.23;;;1.40;;
15331;SDS011;7766;51.534;6.722;2022-07-29T02:27:34;3.77;;;1.30;;
15331;SDS011;7766;51.534;6.722;2022-07-29T02:28:35;3.00;;;1.10;;
15331;SDS011;7766;51.534;6.722;2022-07-29T02:29:36;5.33;;;1.57;;
15331;SDS011;7766;51.534;6.722;2022-07-29T02:30:39;3.57;;;1.33;;
15331;SDS011;7766;51.534;6.722;2022-07-29T02:31:40;7.10;;;1.47;;
15331;SDS011;7766;51.534;6.722;2022-07-29T02:32:43;3.90;;;1.37;;
15331;SDS011;7766;51.534;6.722;2022-07-29T02:33:45;5.33;;;1.60;;
15331;SDS011;7766;51.534;6.722;2022-07-29T02:34:46;3.83;;;1.30;;
15331;SDS011;7766;51.534;6.722;2022-07-29T02:35:48;3.67;;;1.40;;
15331;SDS011;7766;51.534;6.722;2022-07-29T02:36:49;3.53;;;1.57;;
15331;SDS011;7766;51.534;6.722;2022-07-29T02:37:50;3.73;;;1.40;;
15331;SDS011;7766;51.534;6.722;2022-07-29T02:39:27;3.03;;;1.10;;
15331;SDS011;7766;51.534;6.722;2022-07-29T02:40:29;3.13;;;1.40;;
15331;SDS011;7766;51.534;6.722;2022-07-29T02:41:32;6.33;;;1.13;;
15331;SDS011;7766;51.534;6.722;2022-07-29T02:42:37;2.20;;;1.17;;
15331;SDS011;7766;51.534;6.722;2022-07-29T02:43:39;2.13;;;1.00;;
15331;SDS011;7766;51.534;6.722;2022-07-29T02:44:41;3.83;;;1.30;;
15331;SDS011;7766;51.534;6.722;2022-07-29T02:45:43;2.60;;;1.10;;
15331;SDS011;7766;51.534;6.722;2022-07-29T02:46:57;2.20;;;1.13;;
15331;SDS011;7766;51.534;6.722;2022-07-29T02:47:59;3.50;;;0.97;;
15331;SDS011;7766;51.534;6.722;2022-07-29T02:49:03;3.00;;;1.10;;
15331;SDS011;7766;51.534;6.722;2022-07-29T02:50:48;2.83;;;1.20;;
15331;SDS011;7766;51.534;6.722;2022-07-29T02:51:41;3.10;;;1.10;;
15331;SDS011;7766;51.534;6.722;2022-07-29T02:52:44;3.53;;;1.30;;
15331;SDS011;7766;51.534;6.722;2022-07-29T02:53:47;3.40;;;1.20;;
15331;SDS011;7766;51.534;6.722;2022-07-29T02:56:23;3.40;;;1.20;;
15331;SDS011;7766;51.534;6.722;2022-07-29T02:57:34;3.77;;;1.30;;
15331;SDS011;7766;51.534;6.722;2022-07-29T02:58:38;6.57;;;2.43;;
15331;SDS011;7766;51.534;6.722;2022-07-29T02:59:39;1.93;;;0.97;;
15331;SDS011;7766;51.534;6.722;2022-07-29T03:00:42;1.83;;;1.27;;
15331;SDS011;7766;51.534;6.722;2022-07-29T03:01:43;5.90;;;1.27;;
15331;SDS011;7766;51.534;6.722;2022-07-29T03:02:45;3.93;;;1.40;;
15331;SDS011;7766;51.534;6.722;2022-07-29T03:03:46;5.43;;;1.03;;
15331;SDS011;7766;51.534;6.722;2022-07-29T03:04:47;5.43;;;1.30;;
15331;SDS011;7766;51.534;6.722;2022-07-29T03:05:49;2.43;;;1.33;;
15331;SDS011;7766;51.534;6.722;2022-07-29T03:06:50;2.70;;;1.17;;
15331;SDS011;7766;51.534;6.722;2022-07-29T03:08:01;3.47;;;1.23;;
15331;SDS011;7766;51.534;6.722;2022-07-29T03:09:03;3.40;;;0.83;;
15331;SDS011;7766;51.534;6.722;2022-07-29T03:10:04;4.00;;;1.13;;
15331;SDS011;7766;51.534;6.722;2022-07-29T03:11:07;1.57;;;1.03;;
15331;SDS011;7766;51.534;6.722;2022-07-29T03:12:08;3.00;;;1.37;;
15331;SDS011;7766;51.534;6.722;2022-07-29T03:13:09;2.70;;;1.27;;
15331;SDS011;7766;51.534;6.722;2022-07-29T03:14:11;2.37;;;1.20;;
15331;SDS011;7766;51.534;6.722;2022-07-29T03:15:12;3.90;;;1.40;;
15331;SDS011;7766;51.534;6.722;2022-07-29T03:16:14;6.27;;;1.27;;
15331;SDS011;7766;51.534;6.722;2022-07-29T03:17:15;3.83;;;1.33;;
15331;SDS011;7766;51.534;6.722;2022-07-29T03:18:16;3.53;;;1.20;;
15331;SDS011;7766;51.534;6.722;2022-07-29T03:19:18;1.97;;;1.17;;
15331;SDS011;7766;51.534;6.722;2022-07-29T03:20:20;3.47;;;1.27;;
15331;SDS011;7766;51.534;6.722;2022-07-29T03:21:21;2.80;;;1.20;;
15331;SDS011;7766;51.534;6.722;2022-07-29T03:22:21;4.33;;;1.40;;
15331;SDS011;7766;51.534;6.722;2022-07-29T03:23:23;4.67;;;1.20;;
15331;SDS011;7766;51.534;6.722;2022-07-29T03:25:26;3.20;;;1.47;;
15331;SDS011;7766;51.534;6.722;2022-07-29T03:26:27;3.37;;;1.37;;
15331;SDS011;7766;51.534;6.722;2022-07-29T03:27:28;2.93;;;1.80;;
15331;SDS011;7766;51.534;6.722;2022-07-29T03:28:29;4.67;;;1.90;;
15331;SDS011;7766;51.534;6.722;2022-07-29T03:29:30;3.30;;;1.60;;
15331;SDS011;7766;51.534;6.722;2022-07-29T03:30:31;6.03;;;2.17;;
15331;SDS011;7766;51.534;6.722;2022-07-29T03:31:32;7.13;;;1.73;;
15331;SDS011;7766;51.534;6.722;2022-07-29T03:32:33;4.87;;;1.60;;
15331;SDS011;7766;51.534;6.722;2022-07-29T03:33:34;3.90;;;1.73;;
15331;SDS011;7766;51.534;6.722;2022-07-29T03:34:36;5.70;;;1.50;;
15331;SDS011;7766;51.534;6.722;2022-07-29T03:35:37;6.53;;;1.47;;
15331;SDS011;7766;51.534;6.722;2022-07-29T03:36:38;7.73;;;1.83;;
15331;SDS011;7766;51.534;6.722;2022-07-29T03:37:39;5.27;;;2.40;;
15331;SDS011;7766;51.534;6.722;2022-07-29T03:38:40;3.73;;;1.50;;
15331;SDS011;7766;51.534;6.722;2022-07-29T03:39:43;7.33;;;1.93;;
15331;SDS011;7766;51.534;6.722;2022-07-29T03:40:51;3.17;;;1.67;;
15331;SDS011;7766;51.534;6.722;2022-07-29T03:41:54;3.70;;;1.50;;
15331;SDS011;7766;51.534;6.722;2022-07-29T03:42:57;3.40;;;1.67;;
15331;SDS011;7766;51.534;6.722;2022-07-29T03:43:59;4.73;;;1.37;;
15331;SDS011;7766;51.534;6.722;2022-07-29T03:45:07;2.20;;;1.50;;
15331;SDS011;7766;51.534;6.722;2022-07-29T03:46:10;3.60;;;1.40;;
15331;SDS011;7766;51.534;6.722;2022-07-29T03:47:11;3.40;;;1.23;;
15331;SDS011;7766;51.534;6.722;2022-07-29T03:48:14;2.87;;;1.60;;
15331;SDS011;7766;51.534;6.722;2022-07-29T03:49:16;3.73;;;1.60;;
15331;SDS011;7766;51.534;6.722;2022-07-29T03:50:18;3.40;;;1.37;;
15331;SDS011;7766;51.534;6.722;2022-07-29T03:51:21;3.07;;;1.30;;
15331;SDS011;7766;51.534;6.722;2022-07-29T03:52:21;3.77;;;1.30;;
15331;SDS011;7766;51.534;6.722;2022-07-29T03:53:23;4.03;;;1.60;;
15331;SDS011;7766;51.534;6.722;2022-07-29T03:54:24;1.57;;;1.30;;
15331;SDS011;7766;51.534;6.722;2022-07-29T03:55:25;6.33;;;1.87;;
15331;SDS011;7766;51.534;6.722;2022-07-29T03:56:27;1.73;;;1.30;;
15331;SDS011;7766;51.534;6.722;2022-07-29T03:57:28;4.40;;;1.50;;
15331;SDS011;7766;51.534;6.722;2022-07-29T03:58:31;3.63;;;1.57;;
15331;SDS011;7766;51.534;6.722;2022-07-29T03:59:32;5.43;;;1.70;;
15331;SDS011;7766;51.534;6.722;2022-07-29T04:00:34;3.30;;;1.60;;
15331;SDS011;7766;51.534;6.722;2022-07-29T04:01:35;2.43;;;1.20;;
15331;SDS011;7766;51.534;6.722;2022-07-29T04:02:38;4.13;;;1.40;;
15331;SDS011;7766;51.534;6.722;2022-07-29T04:03:39;2.23;;;1.37;;
15331;SDS011;7766;51.534;6.722;2022-07-29T04:04:40;4.00;;;1.37;;
15331;SDS011;7766;51.534;6.722;2022-07-29T04:05:40;3.03;;;1.10;;
15331;SDS011;7766;51.534;6.722;2022-07-29T04:06:42;3.10;;;1.10;;
15331;SDS011;7766;51.534;6.722;2022-07-29T04:07:44;3.33;;;1.20;;
15331;SDS011;7766;51.534;6.722;2022-07-29T04:08:45;2.53;;;1.30;;
15331;SDS011;7766;51.534;6.722;2022-07-29T04:09:46;3.87;;;1.17;;
15331;SDS011;7766;51.534;6.722;2022-07-29T04:10:47;4.30;;;1.17;;
15331;SDS011;7766;51.534;6.722;2022-07-29T04:11:48;6.37;;;1.90;;
15331;SDS011;7766;51.534;6.722;2022-07-29T04:12:49;2.57;;;1.30;;
15331;SDS011;7766;51.534;6.722;2022-07-29T04:13:50;3.20;;;1.30;;
15331;SDS011;7766;51.534;6.722;2022-07-29T04:14:51;4.93;;;1.57;;
15331;SDS011;7766;51.534;6.722;2022-07-29T04:15:52;2.43;;;1.20;;
15331;SDS011;7766;51.534;6.722;2022-07-29T04:16:52;3.57;;;1.47;;
15331;SDS011;7766;51.534;6.722;2022-07-29T04:17:54;3.30;;;1.20;;
15331;SDS011;7766;51.534;6.722;2022-07-29T04:18:55;5.00;;;1.80;;
15331;SDS011;7766;51.534;6.722;2022-07-29T04:19:56;3.27;;;1.40;;
15331;SDS011;7766;51.534;6.722;2022-07-29T04:20:57;2.90;;;1.40;;
15331;SDS011;7766;51.534;6.722;2022-07-29T04:22:00;2.80;;;1.30;;
15331;SDS011;7766;51.534;6.722;2022-07-29T04:23:01;3.50;;;1.50;;
15331;SDS011;7766;51.534;6.722;2022-07-29T04:24:02;3.73;;;1.70;;
15331;SDS011;7766;51.534;6.722;2022-07-29T04:25:03;4.73;;;1.30;;
15331;SDS011;7766;51.534;6.722;2022-07-29T04:26:04;4.67;;;1.60;;
15331;SDS011;7766;51.534;6.722;2022-07-29T04:27:05;3.27;;;1.50;;
15331;SDS011;7766;51.534;6.722;2022-07-29T04:28:07;3.60;;;1.50;;
15331;SDS011;7766;51.534;6.722;2022-07-29T04:29:08;5.83;;;1.60;;
15331;SDS011;7766;51.534;6.722;2022-07-29T04:30:09;2.37;;;1.33;;
15331;SDS011;7766;51.534;6.722;2022-07-29T04:31:10;3.53;;;1.33;;
15331;SDS011;7766;51.534;6.722;2022-07-29T04:32:12;1.97;;;1.40;;
15331;SDS011;7766;51.534;6.722;2022-07-29T04:33:13;2.43;;;1.40;;
15331;SDS011;7766;51.534;6.722;2022-07-29T04:34:13;3.17;;;1.60;;
15331;SDS011;7766;51.534;6.722;2022-07-29T04:35:14;2.67;;;1.50;;
15331;SDS011;7766;51.534;6.722;2022-07-29T04:36:14;4.47;;;1.70;;
15331;SDS011;7766;51.534;6.722;2022-07-29T04:37:15;3.33;;;1.53;;
15331;SDS011;7766;51.534;6.722;2022-07-29T04:38:16;2.07;;;1.33;;
15331;SDS011;7766;51.534;6.722;2022-07-29T04:39:17;3.80;;;1.90;;
15331;SDS011;7766;51.534;6.722;2022-07-29T04:40:18;3.30;;;1.73;;
15331;SDS011;7766;51.534;6.722;2022-07-29T04:41:19;5.87;;;1.57;;
15331;SDS011;7766;51.534;6.722;2022-07-29T04:42:20;2.73;;;2.00;;
15331;SDS011;7766;51.534;6.722;2022-07-29T04:43:20;3.10;;;1.50;;
15331;SDS011;7766;51.534;6.722;2022-07-29T04:44:21;4.10;;;2.13;;
15331;SDS011;7766;51.534;6.722;2022-07-29T04:45:22;3.07;;;2.10;;
15331;SDS011;7766;51.534;6.722;2022-07-29T04:46:23;4.60;;;1.80;;
15331;SDS011;7766;51.534;6.722;2022-07-29T04:47:24;3.63;;;1.70;;
15331;SDS011;7766;51.534;6.722;2022-07-29T04:48:25;3.17;;;2.03;;
15331;SDS011;7766;51.534;6.722;2022-07-29T04:49:26;4.13;;;1.90;;
15331;SDS011;7766;51.534;6.722;2022-07-29T04:50:27;7.30;;;2.50;;
15331;SDS011;7766;51.534;6.722;2022-07-29T04:51:28;2.37;;;1.83;;
15331;SDS011;7766;51.534;6.722;2022-07-29T04:52:28;6.40;;;2.30;;
15331;SDS011;7766;51.534;6.722;2022-07-29T04:53:29;3.30;;;1.80;;
15331;SDS011;7766;51.534;6.722;2022-07-29T04:54:30;4.13;;;2.20;;
15331;SDS011;7766;51.534;6.722;2022-07-29T04:55:31;4.13;;;1.90;;
15331;SDS011;7766;51.534;6.722;2022-07-29T04:56:32;4.27;;;1.97;;
15331;SDS011;7766;51.534;6.722;2022-07-29T04:57:33;5.27;;;2.20;;
15331;SDS011;7766;51.534;6.722;2022-07-29T04:58:34;2.97;;;2.03;;
15331;SDS011;7766;51.534;6.722;2022-07-29T04:59:35;7.97;;;1.93;;
15331;SDS011;7766;51.534;6.722;2022-07-29T05:00:36;3.13;;;2.20;;
15331;SDS011;7766;51.534;6.722;2022-07-29T05:01:37;2.97;;;2.17;;
15331;SDS011;7766;51.534;6.722;2022-07-29T05:02:38;5.33;;;2.43;;
15331;SDS011;7766;51.534;6.722;2022-07-29T05:03:39;3.67;;;2.00;;
15331;SDS011;7766;51.534;6.722;2022-07-29T05:04:40;4.10;;;2.07;;
15331;SDS011;7766;51.534;6.722;2022-07-29T05:05:41;5.60;;;2.20;;
15331;SDS011;7766;51.534;6.722;2022-07-29T05:06:42;5.33;;;2.30;;
15331;SDS011;7766;51.534;6.722;2022-07-29T05:07:43;7.33;;;2.57;;
15331;SDS011;7766;51.534;6.722;2022-07-29T05:08:44;4.43;;;2.30;;
15331;SDS011;7766;51.534;6.722;2022-07-29T05:09:45;7.23;;;2.43;;
15331;SDS011;7766;51.534;6.722;2022-07-29T05:10:46;3.77;;;2.50;;
15331;SDS011;7766;51.534;6.722;2022-07-29T05:11:47;5.40;;;2.10;;
15331;SDS011;7766;51.534;6.722;2022-07-29T05:12:48;3.63;;;2.13;;
15331;SDS011;7766;51.534;6.722;2022-07-29T05:13:48;3.87;;;2.23;;
15331;SDS011;7766;51.534;6.722;2022-07-29T05:14:49;6.37;;;2.33;;
15331;SDS011;7766;51.534;6.722;2022-07-29T05:15:50;3.70;;;2.00;;
15331;SDS011;7766;51.534;6.722;2022-07-29T05:16:51;2.83;;;2.10;;
15331;SDS011;7766;51.534;6.722;2022-07-29T05:17:56;3.27;;;2.00;;
15331;SDS011;7766;51.534;6.722;2022-07-29T05:18:57;3.90;;;2.17;;
15331;SDS011;7766;51.534;6.722;2022-07-29T05:19:58;5.33;;;2.27;;
15331;SDS011;7766;51.534;6.722;2022-07-29T05:20:59;4.57;;;2.10;;
15331;SDS011;7766;51.534;6.722;2022-07-29T05:22:00;3.97;;;2.10;;
15331;SDS011;7766;51.534;6.722;2022-07-29T05:23:01;5.07;;;2.07;;
15331;SDS011;7766;51.534;6.722;2022-07-29T05:24:03;2.43;;;2.03;;
15331;SDS011;7766;51.534;6.722;2022-07-29T05:25:04;4.23;;;1.90;;
15331;SDS011;7766;51.534;6.722;2022-07-29T05:26:05;3.23;;;2.17;;
15331;SDS011;7766;51.534;6.722;2022-07-29T05:27:06;3.63;;;2.17;;
15331;SDS011;7766;51.534;6.722;2022-07-29T05:28:07;4.20;;;1.97;;
15331;SDS011;7766;51.534;6.722;2022-07-29T05:29:08;4.57;;;2.07;;
15331;SDS011;7766;51.534;6.722;2022-07-29T05:30:09;5.07;;;2.30;;
15331;SDS011;7766;51.534;6.722;2022-07-29T05:31:10;3.07;;;1.80;;
15331;SDS011;7766;51.534;6.722;2022-07-29T05:32:11;5.20;;;2.47;;
15331;SDS011;7766;51.534;6.722;2022-07-29T05:33:12;5.50;;;2.07;;
15331;SDS011;7766;51.534;6.722;2022-07-29T05:34:13;4.70;;;1.87;;
15331;SDS011;7766;51.534;6.722;2022-07-29T05:35:14;3.07;;;1.80;;
15331;SDS011;7766;51.534;6.722;2022-07-29T05:36:15;3.43;;;2.30;;
15331;SDS011;7766;51.534;6.722;2022-07-29T05:37:16;3.20;;;2.10;;
15331;SDS011;7766;51.534;6.722;2022-07-29T05:38:17;5.80;;;2.50;;
15331;SDS011;7766;51.534;6.722;2022-07-29T05:39:18;4.73;;;2.40;;
15331;SDS011;7766;51.534;6.722;2022-07-29T05:40:18;4.07;;;2.13;;
15331;SDS011;7766;51.534;6.722;2022-07-29T05:41:20;3.67;;;2.17;;
15331;SDS011;7766;51.534;6.722;2022-07-29T05:42:21;4.50;;;2.00;;
15331;SDS011;7766;51.534;6.722;2022-07-29T05:43:22;6.47;;;2.47;;
15331;SDS011;7766;51.534;6.722;2022-07-29T05:44:23;4.90;;;2.50;;
15331;SDS011;7766;51.534;6.722;2022-07-29T05:45:23;4.23;;;2.47;;
15331;SDS011;7766;51.534;6.722;2022-07-29T05:46:24;6.83;;;2.40;;
15331;SDS011;7766;51.534;6.722;2022-07-29T05:47:25;3.97;;;2.43;;
15331;SDS011;7766;51.534;6.722;2022-07-29T05:48:26;3.23;;;1.97;;
15331;SDS011;7766;51.534;6.722;2022-07-29T05:49:27;4.30;;;2.10;;
15331;SDS011;7766;51.534;6.722;2022-07-29T05:50:28;6.93;;;2.57;;
15331;SDS011;7766;51.534;6.722;2022-07-29T05:51:29;3.37;;;2.17;;
15331;SDS011;7766;51.534;6.722;2022-07-29T05:52:30;4.17;;;2.30;;
15331;SDS011;7766;51.534;6.722;2022-07-29T05:53:31;6.30;;;2.57;;
15331;SDS011;7766;51.534;6.722;2022-07-29T05:54:32;7.50;;;2.50;;
15331;SDS011;7766;51.534;6.722;2022-07-29T05:55:33;3.67;;;2.03;;
15331;SDS011;7766;51.534;6.722;2022-07-29T05:56:35;4.33;;;2.10;;
15331;SDS011;7766;51.534;6.722;2022-07-29T05:57:36;8.57;;;2.37;;
15331;SDS011;7766;51.534;6.722;2022-07-29T05:58:37;4.00;;;2.03;;
15331;SDS011;7766;51.534;6.722;2022-07-29T05:59:38;3.33;;;2.00;;
15331;SDS011;7766;51.534;6.722;2022-07-29T06:00:39;5.10;;;2.10;;
15331;SDS011;7766;51.534;6.722;2022-07-29T06:01:40;3.80;;;2.30;;
15331;SDS011;7766;51.534;6.722;2022-07-29T06:02:41;2.80;;;2.00;;
15331;SDS011;7766;51.534;6.722;2022-07-29T06:03:42;3.90;;;2.50;;
15331;SDS011;7766;51.534;6.722;2022-07-29T06:04:43;3.27;;;1.97;;
15331;SDS011;7766;51.534;6.722;2022-07-29T06:05:44;3.73;;;2.07;;
15331;SDS011;7766;51.534;6.722;2022-07-29T06:06:45;4.60;;;2.43;;
15331;SDS011;7766;51.534;6.722;2022-07-29T06:07:46;4.00;;;2.20;;
15331;SDS011;7766;51.534;6.722;2022-07-29T06:08:47;4.77;;;2.20;;
15331;SDS011;7766;51.534;6.722;2022-07-29T06:09:48;10.77;;;2.47;;
15331;SDS011;7766;51.534;6.722;2022-07-29T06:10:49;4.77;;;2.60;;
15331;SDS011;7766;51.534;6.722;2022-07-29T06:11:49;5.23;;;2.37;;
15331;SDS011;7766;51.534;6.722;2022-07-29T06:12:50;4.73;;;2.43;;
15331;SDS011;7766;51.534;6.722;2022-07-29T06:13:51;7.47;;;2.60;;
15331;SDS011;7766;51.534;6.722;2022-07-29T06:14:53;4.10;;;2.50;;
15331;SDS011;7766;51.534;6.722;2022-07-29T06:15:53;5.30;;;2.50;;
15331;SDS011;7766;51.534;6.722;2022-07-29T06:16:55;3.07;;;1.97;;
15331;SDS011;7766;51.534;6.722;2022-07-29T06:17:56;6.23;;;2.23;;
15331;SDS011;7766;51.534;6.722;2022-07-29T06:18:57;6.47;;;2.33;;
15331;SDS011;7766;51.534;6.722;2022-07-29T06:19:58;4.30;;;1.97;;
15331;SDS011;7766;51.534;6.722;2022-07-29T06:20:58;3.80;;;2.03;;
15331;SDS011;7766;51.534;6.722;2022-07-29T06:21:58;3.63;;;2.63;;
15331;SDS011;7766;51.534;6.722;2022-07-29T06:22:59;6.03;;;2.77;;
15331;SDS011;7766;51.534;6.722;2022-07-29T06:24:01;3.87;;;2.53;;
15331;SDS011;7766;51.534;6.722;2022-07-29T06:25:02;5.00;;;2.40;;
15331;SDS011;7766;51.534;6.722;2022-07-29T06:26:03;4.20;;;2.50;;
15331;SDS011;7766;51.534;6.722;2022-07-29T06:27:04;4.07;;;2.73;;
15331;SDS011;7766;51.534;6.722;2022-07-29T06:28:05;2.93;;;2.30;;
15331;SDS011;7766;51.534;6.722;2022-07-29T06:29:06;4.73;;;2.30;;
15331;SDS011;7766;51.534;6.722;2022-07-29T06:30:07;2.83;;;1.73;;
15331;SDS011;7766;51.534;6.722;2022-07-29T06:31:08;6.70;;;2.47;;